Time;durP1;ratioP1;P1;durP2;ratioP2;P2;SDS_P1;SDS_P2;PMS_P1;PMS_P2;Temp;Humidity;BMP_temperature;BMP_pressure;BME280_temperature;BME280_humidity;BME280_pressure;Samples;Min_cycle;Max_cycle;Signal;HPM_P1;HPM_P2
2022/10/27 00:02:11;;;;;;;8.70;8.50;;;10.70;99.90;;;;;;5072536;28;20234;-87
2022/10/27 00:04:39;;;;;;;8.57;8.37;;;10.60;99.90;;;;;;5060555;28;20233;-86
2022/10/27 00:07:09;;;;;;;8.50;8.30;;;10.60;99.90;;;;;;5065496;28;20317;-86
2022/10/27 00:09:41;;;;;;;8.60;8.40;;;10.60;99.90;;;;;;5078327;28;20242;-86
2022/10/27 00:12:08;;;;;;;8.63;8.43;;;10.60;99.90;;;;;;5078996;28;20234;-86
2022/10/27 00:14:37;;;;;;;8.97;8.67;;;10.60;99.90;;;;;;5089822;28;20214;-85
2022/10/27 00:17:06;;;;;;;8.50;8.30;;;10.60;99.90;;;;;;5081278;28;20254;-86
2022/10/27 00:19:37;;;;;;;9.10;8.80;;;10.60;99.90;;;;;;5091169;28;20229;-85
2022/10/27 00:22:06;;;;;;;9.10;8.80;;;10.60;99.90;;;;;;5102392;28;20195;-85
2022/10/27 00:24:35;;;;;;;9.07;8.77;;;10.60;99.90;;;;;;5102434;28;20218;-84
2022/10/27 00:27:15;;;;;;;9.10;8.80;;;10.60;99.90;;;;;;5102205;28;20222;-85
2022/10/27 00:29:42;;;;;;;9.23;8.93;;;10.60;99.90;;;;;;5101981;28;20260;-85
2022/10/27 00:32:13;;;;;;;8.97;8.70;;;10.60;99.90;;;;;;5101887;28;20210;-85
2022/10/27 00:34:42;;;;;;;8.93;8.63;;;10.60;99.90;;;;;;5101484;28;20226;-85
2022/10/27 00:37:11;;;;;;;8.93;8.63;;;10.70;99.90;;;;;;5101364;28;20238;-85
2022/10/27 00:39:40;;;;;;;8.60;8.40;;;10.60;99.90;;;;;;5099565;28;20257;-85
2022/10/27 00:42:20;;;;;;;8.60;8.40;;;10.70;99.90;;;;;;5098083;28;20226;-86
2022/10/27 00:44:48;;;;;;;9.00;8.70;;;10.60;99.90;;;;;;5061287;28;20226;-86
2022/10/27 00:47:30;;;;;;;8.73;8.53;;;10.60;99.90;;;;;;5061091;28;20227;-86
2022/10/27 00:50:05;;;;;;;8.70;8.50;;;10.60;99.90;;;;;;5059931;28;20242;-86
2022/10/27 00:52:45;;;;;;;9.00;8.70;;;10.50;99.90;;;;;;5060863;28;20231;-86
2022/10/27 00:55:21;;;;;;;8.80;8.60;;;10.50;99.90;;;;;;5070332;28;20224;-86
2022/10/27 00:57:59;;;;;;;8.90;8.60;;;10.50;99.90;;;;;;5080027;28;20226;-85
2022/10/27 01:00:29;;;;;;;9.10;8.80;;;10.40;99.90;;;;;;5072209;28;20246;-87
2022/10/27 01:02:58;;;;;;;8.77;8.57;;;10.40;99.90;;;;;;5071068;28;20227;-86
2022/10/27 01:05:28;;;;;;;9.10;8.80;;;10.40;99.90;;;;;;5071767;28;20234;-86
2022/10/27 01:08:00;;;;;;;8.70;8.50;;;10.40;99.90;;;;;;5079937;28;20281;-87
2022/10/27 01:10:28;;;;;;;8.70;8.50;;;10.40;99.90;;;;;;5064986;28;20262;-86
2022/10/27 01:12:59;;;;;;;9.10;8.80;;;10.40;99.90;;;;;;5059280;28;20237;-86
2022/10/27 01:15:38;;;;;;;8.87;8.60;;;10.30;99.90;;;;;;5059703;28;20266;-87
2022/10/27 01:18:17;;;;;;;8.80;8.60;;;10.30;99.90;;;;;;5059732;28;20315;-87
2022/10/27 01:21:28;;;;;;;8.73;8.53;;;10.30;99.90;;;;;;5074173;28;20219;-86
2022/10/27 01:24:41;;;;;;;8.53;8.33;;;10.30;99.90;;;;;;5059209;28;20227;-87
2022/10/27 01:27:39;;;;;;;9.00;8.70;;;10.30;99.90;;;;;;5055051;28;20227;-86
2022/10/27 01:30:16;;;;;;;9.10;8.80;;;10.20;99.90;;;;;;5059357;28;20305;-87
2022/10/27 01:33:02;;;;;;;9.17;8.87;;;10.20;99.90;;;;;;5059147;28;20298;-86
2022/10/27 01:35:49;;;;;;;9.00;8.70;;;10.20;99.90;;;;;;5059483;28;20317;-88
2022/10/27 01:38:28;;;;;;;8.77;8.57;;;10.20;99.90;;;;;;5059307;28;20239;-87
2022/10/27 01:41:08;;;;;;;8.73;8.53;;;10.20;99.90;;;;;;5059508;28;20285;-87
2022/10/27 01:43:36;;;;;;;8.60;8.40;;;10.20;99.90;;;;;;5059053;28;20333;-86
2022/10/27 01:46:07;;;;;;;8.60;8.40;;;10.10;99.90;;;;;;5058932;28;20310;-86
2022/10/27 01:48:43;;;;;;;8.47;8.27;;;10.10;99.90;;;;;;5061548;28;20273;-85
2022/10/27 01:51:12;;;;;;;8.50;8.30;;;10.10;99.90;;;;;;5063116;28;20291;-86
2022/10/27 01:53:44;;;;;;;8.43;8.23;;;10.00;99.90;;;;;;5060445;28;20239;-86
2022/10/27 01:56:37;;;;;;;8.50;8.30;;;10.00;99.90;;;;;;5059204;28;20259;-86
2022/10/27 01:59:33;;;;;;;8.50;8.30;;;9.90;99.90;;;;;;5058261;28;20236;-86
2022/10/27 02:02:12;;;;;;;8.43;8.23;;;9.90;99.90;;;;;;5058355;28;20239;-86
2022/10/27 02:04:59;;;;;;;8.50;8.30;;;9.90;99.90;;;;;;5058662;28;20325;-86
2022/10/27 02:07:38;;;;;;;8.57;8.37;;;9.80;99.90;;;;;;5060187;28;20214;-86
2022/10/27 02:10:24;;;;;;;8.97;8.70;;;9.80;99.90;;;;;;5059891;28;20230;-86
2022/10/27 02:12:53;;;;;;;9.00;8.70;;;9.80;99.90;;;;;;5058219;28;20246;-87
2022/10/27 02:15:31;;;;;;;8.70;8.50;;;9.80;99.90;;;;;;5058692;28;21205;-86
2022/10/27 02:18:03;;;;;;;9.07;8.77;;;9.80;99.90;;;;;;5058763;28;20282;-87
2022/10/27 02:20:39;;;;;;;9.00;8.70;;;9.80;99.90;;;;;;5058311;28;20231;-87
2022/10/27 02:23:17;;;;;;;8.80;8.60;;;9.70;99.90;;;;;;5057932;28;20261;-87
2022/10/27 02:25:56;;;;;;;9.03;8.73;;;9.70;99.90;;;;;;5058582;28;20226;-87
2022/10/27 02:28:34;;;;;;;9.00;8.70;;;9.60;99.90;;;;;;5058770;28;20239;-86
2022/10/27 02:31:03;;;;;;;9.20;8.90;;;9.60;99.90;;;;;;5058493;28;20292;-87
2022/10/27 02:33:33;;;;;;;8.70;8.50;;;9.50;99.90;;;;;;5064209;28;20325;-87
2022/10/27 02:36:11;;;;;;;8.87;8.67;;;9.50;99.90;;;;;;5079790;28;20253;-86
2022/10/27 02:38:40;;;;;;;8.80;8.60;;;9.50;99.90;;;;;;5076761;28;20231;-87
2022/10/27 02:41:10;;;;;;;8.70;8.50;;;9.40;99.90;;;;;;5058245;28;20309;-87
2022/10/27 02:43:39;;;;;;;8.77;8.57;;;9.40;99.90;;;;;;5058016;28;20281;-86
2022/10/27 02:46:08;;;;;;;8.70;8.50;;;9.40;99.90;;;;;;5057548;28;20296;-87
2022/10/27 02:48:38;;;;;;;8.60;8.40;;;9.40;99.90;;;;;;5057655;28;20254;-87
2022/10/27 02:51:16;;;;;;;8.40;8.20;;;9.40;99.90;;;;;;5065750;28;20233;-86
2022/10/27 02:53:46;;;;;;;8.67;8.47;;;9.30;99.90;;;;;;5064604;28;20230;-87
2022/10/27 02:56:15;;;;;;;8.70;8.50;;;9.30;99.90;;;;;;5057689;28;20302;-87
2022/10/27 02:58:45;;;;;;;8.60;8.40;;;9.30;99.90;;;;;;5057858;28;20226;-87
2022/10/27 03:01:14;;;;;;;8.57;8.37;;;9.30;99.90;;;;;;5058098;28;20261;-87
2022/10/27 03:03:44;;;;;;;8.40;8.20;;;9.20;99.90;;;;;;5057957;28;20235;-87
2022/10/27 03:06:21;;;;;;;8.70;8.50;;;9.20;99.90;;;;;;5057574;28;20242;-87
2022/10/27 03:08:51;;;;;;;8.40;8.20;;;9.20;99.90;;;;;;5059805;28;20214;-87
2022/10/27 03:11:20;;;;;;;8.60;8.40;;;9.10;99.90;;;;;;5061705;28;20226;-87
2022/10/27 03:13:50;;;;;;;8.50;8.30;;;9.10;99.90;;;;;;5060863;28;20238;-87
2022/10/27 03:16:22;;;;;;;8.57;8.37;;;9.10;99.90;;;;;;5058272;28;20265;-87
2022/10/27 03:18:51;;;;;;;8.50;8.30;;;9.00;99.90;;;;;;5057023;28;20250;-87
2022/10/27 03:21:22;;;;;;;8.57;8.37;;;8.90;99.90;;;;;;5057711;28;20265;-87
2022/10/27 03:23:50;;;;;;;8.20;8.00;;;8.90;99.90;;;;;;5057643;28;20273;-87
2022/10/27 03:26:20;;;;;;;8.30;8.10;;;8.90;99.90;;;;;;5056909;28;20289;-87
2022/10/27 03:28:48;;;;;;;8.70;8.50;;;8.90;99.90;;;;;;5058118;28;20315;-87
2022/10/27 03:31:18;;;;;;;8.50;8.30;;;8.90;99.90;;;;;;5057842;28;20253;-87
2022/10/27 03:33:47;;;;;;;8.53;8.33;;;8.90;99.90;;;;;;5057517;28;20285;-86
2022/10/27 03:36:17;;;;;;;8.70;8.50;;;8.90;99.90;;;;;;5057468;28;20238;-87
2022/10/27 03:38:58;;;;;;;8.47;8.27;;;8.90;99.90;;;;;;5057199;28;20295;-86
2022/10/27 03:41:26;;;;;;;8.30;8.10;;;8.90;99.90;;;;;;5057837;28;20258;-86
2022/10/27 03:43:54;;;;;;;8.50;8.30;;;8.80;99.90;;;;;;5057258;28;20261;-87
2022/10/27 03:46:23;;;;;;;8.40;8.20;;;8.80;99.90;;;;;;5056806;28;20317;-87
2022/10/27 03:48:53;;;;;;;8.30;8.10;;;8.80;99.90;;;;;;5056829;28;20219;-87
2022/10/27 03:51:22;;;;;;;8.50;8.30;;;8.80;99.90;;;;;;5057132;28;20326;-87
2022/10/27 03:54:01;;;;;;;8.30;8.10;;;8.80;99.90;;;;;;5056745;28;20330;-87
2022/10/27 03:56:31;;;;;;;8.40;8.20;;;8.80;99.90;;;;;;5057477;28;20298;-87
2022/10/27 03:58:59;;;;;;;8.70;8.50;;;8.80;99.90;;;;;;5056639;28;20233;-86
2022/10/27 04:01:29;;;;;;;8.70;8.50;;;8.80;99.90;;;;;;5056777;28;20227;-86
2022/10/27 04:03:59;;;;;;;8.80;8.60;;;8.80;99.90;;;;;;5057326;28;20262;-87
2022/10/27 04:06:27;;;;;;;8.53;8.33;;;8.70;99.90;;;;;;5056717;28;20230;-87
2022/10/27 04:09:07;;;;;;;8.60;8.40;;;8.70;99.90;;;;;;5056777;28;20227;-87
2022/10/27 04:11:37;;;;;;;8.60;8.40;;;8.70;99.90;;;;;;5057456;28;20777;-87
2022/10/27 04:14:05;;;;;;;8.60;8.40;;;8.80;99.90;;;;;;5056882;28;20318;-87
2022/10/27 04:16:34;;;;;;;8.53;8.33;;;8.80;99.90;;;;;;5057486;28;20258;-86
2022/10/27 04:19:05;;;;;;;8.70;8.50;;;8.80;99.90;;;;;;5060154;28;20215;-85
2022/10/27 04:21:33;;;;;;;8.63;8.43;;;8.80;99.90;;;;;;5075206;28;20305;-86
2022/10/27 04:24:14;;;;;;;8.60;8.40;;;8.80;99.90;;;;;;5069287;28;20268;-87
2022/10/27 04:26:41;;;;;;;8.67;8.47;;;8.80;99.90;;;;;;5071283;28;20260;-86
2022/10/27 04:29:11;;;;;;;8.80;8.60;;;8.80;99.90;;;;;;5078168;28;20226;-87
2022/10/27 04:31:40;;;;;;;9.10;8.80;;;8.80;99.90;;;;;;5067188;28;20237;-87
2022/10/27 04:34:11;;;;;;;8.70;8.50;;;8.80;99.90;;;;;;5060178;28;20230;-87
2022/10/27 04:36:39;;;;;;;8.77;8.57;;;8.70;99.90;;;;;;5060902;28;20254;-87
2022/10/27 04:39:19;;;;;;;8.70;8.50;;;8.70;99.90;;;;;;5072213;28;20233;-87
2022/10/27 04:41:46;;;;;;;8.60;8.40;;;8.70;99.90;;;;;;5084983;28;20233;-86
2022/10/27 04:44:15;;;;;;;8.70;8.50;;;8.80;99.90;;;;;;5098616;28;21108;-87
2022/10/27 04:46:46;;;;;;;8.40;8.20;;;8.70;99.90;;;;;;5089415;28;20234;-86
2022/10/27 04:49:15;;;;;;;8.37;8.17;;;8.70;99.90;;;;;;5091593;28;20314;-86
2022/10/27 04:51:44;;;;;;;8.60;8.40;;;8.70;99.90;;;;;;5083089;28;20234;-87
2022/10/27 04:54:19;;;;;;;8.40;8.20;;;8.70;99.90;;;;;;5070502;28;20698;-86
2022/10/27 04:56:52;;;;;;;8.60;8.40;;;8.70;99.90;;;;;;5060137;28;20296;-86
2022/10/27 04:59:21;;;;;;;8.50;8.30;;;8.70;99.90;;;;;;5059546;28;20295;-87
2022/10/27 05:01:50;;;;;;;8.60;8.40;;;8.70;99.90;;;;;;5059909;28;20270;-86
2022/10/27 05:04:20;;;;;;;8.60;8.40;;;8.70;99.90;;;;;;5059487;28;20350;-87
2022/10/27 05:06:49;;;;;;;8.60;8.40;;;8.70;99.90;;;;;;5059984;28;20292;-86
2022/10/27 05:09:27;;;;;;;8.43;8.23;;;8.70;99.90;;;;;;5059710;28;20262;-86
2022/10/27 05:11:57;;;;;;;8.70;8.50;;;8.70;99.90;;;;;;5059705;28;20249;-87
2022/10/27 05:14:31;;;;;;;8.53;8.33;;;8.70;99.90;;;;;;5059272;28;20234;-87
2022/10/27 05:16:58;;;;;;;9.00;8.70;;;8.70;99.90;;;;;;5059260;28;20239;-87
2022/10/27 05:19:27;;;;;;;8.77;8.57;;;8.70;99.90;;;;;;5059059;28;20227;-87
2022/10/27 05:21:56;;;;;;;8.50;8.30;;;8.70;99.90;;;;;;5059483;28;20428;-87
2022/10/27 05:27:14;;;;;;;8.60;8.40;;;8.70;99.90;;;;;;5058848;28;20369;-87
2022/10/27 05:29:42;;;;;;;8.80;8.60;;;8.70;99.90;;;;;;5059822;28;20215;-87
2022/10/27 05:32:12;;;;;;;8.80;8.60;;;8.70;99.90;;;;;;5060009;28;20322;-87
2022/10/27 05:34:42;;;;;;;8.50;8.30;;;8.70;99.90;;;;;;5059068;28;20266;-87
2022/10/27 05:37:11;;;;;;;9.27;8.97;;;8.80;99.90;;;;;;5059411;28;20259;-87
2022/10/27 05:39:43;;;;;;;9.63;9.33;;;8.80;99.90;;;;;;5058525;28;20257;-87
2022/10/27 05:42:10;;;;;;;9.43;9.13;;;8.80;99.90;;;;;;5059206;28;20254;-87
2022/10/27 05:44:39;;;;;;;9.60;9.30;;;8.80;99.90;;;;;;5074613;28;20223;-86
2022/10/27 05:47:09;;;;;;;9.70;9.40;;;8.80;99.90;;;;;;5080646;28;20219;-86
2022/10/27 05:49:38;;;;;;;9.80;9.50;;;8.80;99.90;;;;;;5090010;28;20250;-86
2022/10/27 05:52:07;;;;;;;9.60;9.30;;;8.80;99.90;;;;;;5076548;28;20261;-86
2022/10/27 05:54:38;;;;;;;9.53;9.23;;;8.80;99.90;;;;;;5072944;28;20280;-87
2022/10/27 05:59:35;;;;;;;9.37;9.07;;;8.80;99.90;;;;;;5053791;28;20235;-81
2022/10/27 06:02:02;;;;;;;9.10;8.80;;;8.80;99.90;;;;;;5048767;28;20263;-80
2022/10/27 06:04:30;;;;;;;9.40;9.10;;;8.80;99.90;;;;;;5041588;28;20243;-80
2022/10/27 06:06:58;;;;;;;9.33;9.03;;;8.80;99.90;;;;;;5040800;28;20266;-79
2022/10/27 06:09:25;;;;;;;9.20;8.90;;;8.90;99.90;;;;;;5040364;28;20231;-79
2022/10/27 06:11:53;;;;;;;9.60;9.30;;;8.90;99.90;;;;;;5040544;28;20423;-80
2022/10/27 06:14:20;;;;;;;9.17;8.87;;;8.90;99.90;;;;;;5041176;28;20251;-80
2022/10/27 06:16:49;;;;;;;9.40;9.10;;;8.90;99.90;;;;;;5040983;28;20250;-79
2022/10/27 06:19:17;;;;;;;9.17;8.87;;;9.00;99.90;;;;;;5047781;28;20223;-80
2022/10/27 06:21:45;;;;;;;9.40;9.10;;;9.00;99.90;;;;;;5060580;28;20234;-80
2022/10/27 06:24:12;;;;;;;9.50;9.20;;;9.00;99.90;;;;;;5060011;28;20255;-80
2022/10/27 06:26:40;;;;;;;9.20;8.90;;;9.10;99.90;;;;;;5060928;28;20227;-80
2022/10/27 06:29:07;;;;;;;9.30;9.00;;;9.20;99.90;;;;;;5059705;28;20247;-81
2022/10/27 06:31:36;;;;;;;9.10;8.80;;;9.20;99.90;;;;;;5059003;28;20231;-80
2022/10/27 06:34:06;;;;;;;9.17;8.87;;;9.20;99.90;;;;;;5059089;28;20233;-81
2022/10/27 06:36:33;;;;;;;9.30;9.00;;;9.20;99.90;;;;;;5059436;28;20230;-79
2022/10/27 06:39:01;;;;;;;9.30;9.00;;;9.20;99.90;;;;;;5058136;28;20239;-80
2022/10/27 06:41:28;;;;;;;9.13;8.83;;;9.20;99.90;;;;;;5058701;28;20306;-79
2022/10/27 06:43:56;;;;;;;9.00;8.70;;;9.20;99.90;;;;;;5058572;28;20326;-80
2022/10/27 06:46:23;;;;;;;8.90;8.60;;;9.30;99.90;;;;;;5058276;28;20227;-80
2022/10/27 06:48:51;;;;;;;9.23;8.93;;;9.30;99.90;;;;;;5058113;28;20294;-80
2022/10/27 06:51:20;;;;;;;9.07;8.77;;;9.40;99.90;;;;;;5059024;28;20222;-80
2022/10/27 06:53:48;;;;;;;8.90;8.70;;;9.40;99.90;;;;;;5057663;28;20280;-81
2022/10/27 06:56:16;;;;;;;9.20;8.90;;;9.50;99.90;;;;;;5058552;28;20253;-80
2022/10/27 06:58:44;;;;;;;9.30;9.00;;;9.60;99.90;;;;;;5058785;28;20330;-80
2022/10/27 07:01:11;;;;;;;8.80;8.60;;;9.70;99.90;;;;;;5059468;28;20255;-80
2022/10/27 07:03:43;;;;;;;9.07;8.77;;;9.70;99.90;;;;;;5059405;28;20287;-81
2022/10/27 07:06:10;;;;;;;9.07;8.77;;;9.80;99.90;;;;;;5058042;28;20262;-80
2022/10/27 07:08:40;;;;;;;8.77;8.57;;;9.80;99.90;;;;;;5058678;28;20273;-81
2022/10/27 07:11:08;;;;;;;8.90;8.70;;;9.90;99.90;;;;;;5058382;28;20326;-81
2022/10/27 07:13:36;;;;;;;9.17;8.87;;;9.90;99.90;;;;;;5058925;28;20238;-79
2022/10/27 07:16:03;;;;;;;9.10;8.80;;;9.90;99.90;;;;;;5061194;28;20238;-80
2022/10/27 07:18:32;;;;;;;8.97;8.70;;;10.00;99.90;;;;;;5079533;28;20238;-82
2022/10/27 07:21:00;;;;;;;9.27;8.97;;;10.00;99.90;;;;;;5077051;28;20268;-81
2022/10/27 07:23:27;;;;;;;9.33;9.03;;;10.10;99.90;;;;;;5077142;28;20294;-81
2022/10/27 07:25:59;;;;;;;9.27;8.97;;;10.20;99.90;;;;;;5077626;28;20236;-81
2022/10/27 07:28:27;;;;;;;9.33;9.03;;;10.20;99.90;;;;;;5078844;28;20226;-81
2022/10/27 07:30:56;;;;;;;9.00;8.70;;;10.30;99.90;;;;;;5080460;28;20313;-80
2022/10/27 07:33:24;;;;;;;9.17;8.87;;;10.40;99.90;;;;;;5080368;28;20223;-81
2022/10/27 07:35:53;;;;;;;9.10;8.80;;;10.50;99.90;;;;;;5080559;28;20211;-82
2022/10/27 07:38:21;;;;;;;8.60;8.40;;;10.60;99.90;;;;;;5080238;28;20226;-81
2022/10/27 07:40:49;;;;;;;8.37;8.17;;;10.70;99.90;;;;;;5078879;28;20230;-81
2022/10/27 07:43:20;;;;;;;8.10;7.90;;;10.80;99.90;;;;;;5080651;28;20214;-82
2022/10/27 07:45:48;;;;;;;8.13;7.93;;;10.80;99.90;;;;;;5079254;28;20226;-80
2022/10/27 07:48:16;;;;;;;8.20;8.00;;;10.90;99.90;;;;;;5077271;28;20230;-81
2022/10/27 07:50:45;;;;;;;8.40;8.20;;;11.00;99.90;;;;;;5076814;28;20247;-80
2022/10/27 07:53:14;;;;;;;8.47;8.27;;;11.10;99.90;;;;;;5075238;28;20238;-79
2022/10/27 07:55:42;;;;;;;8.23;8.03;;;11.20;99.90;;;;;;5071871;28;20294;-81
2022/10/27 07:58:12;;;;;;;8.30;8.10;;;11.30;99.90;;;;;;5069750;28;20246;-79
2022/10/27 08:00:43;;;;;;;8.33;8.13;;;11.40;99.90;;;;;;5071924;28;20302;-80
2022/10/27 08:03:14;;;;;;;8.53;8.33;;;11.50;99.90;;;;;;5067178;28;20318;-79
2022/10/27 08:05:42;;;;;;;8.13;7.93;;;11.60;99.90;;;;;;5067529;28;20233;-80
2022/10/27 08:08:10;;;;;;;8.50;8.30;;;11.70;99.90;;;;;;5067795;28;20227;-81
2022/10/27 08:10:41;;;;;;;8.30;8.10;;;11.80;99.90;;;;;;5062249;28;20386;-80
2022/10/27 08:13:10;;;;;;;8.23;8.03;;;11.90;99.90;;;;;;5062781;28;20269;-79
2022/10/27 08:15:41;;;;;;;8.40;8.20;;;11.90;99.90;;;;;;5061140;28;20215;-80
2022/10/27 08:18:09;;;;;;;8.13;7.93;;;12.00;99.90;;;;;;5063624;28;20235;-79
2022/10/27 08:20:40;;;;;;;8.27;8.07;;;12.20;99.90;;;;;;5063579;28;20852;-80
2022/10/27 08:23:11;;;;;;;8.10;7.90;;;12.30;99.90;;;;;;5062896;28;20293;-80
2022/10/27 08:25:39;;;;;;;7.80;7.60;;;12.40;99.90;;;;;;5060834;28;21248;-81
2022/10/27 08:28:07;;;;;;;8.00;7.80;;;12.50;99.90;;;;;;5054648;28;20235;-81
2022/10/27 08:30:35;;;;;;;8.20;8.00;;;12.60;99.90;;;;;;5043656;28;20235;-80
2022/10/27 08:33:06;;;;;;;8.20;8.00;;;12.80;99.90;;;;;;5044330;28;20282;-81
2022/10/27 08:35:34;;;;;;;8.37;8.17;;;13.10;99.90;;;;;;5046972;28;20254;-81
2022/10/27 08:38:05;;;;;;;8.10;7.90;;;13.20;99.90;;;;;;5046370;28;20232;-80
2022/10/27 08:40:43;;;;;;;7.97;7.77;;;13.40;99.90;;;;;;5064484;28;20238;-79
2022/10/27 08:43:42;;;;;;;8.33;8.13;;;13.50;99.90;;;;;;5064082;28;20317;-81
2022/10/27 08:46:17;;;;;;;9.00;8.80;;;13.60;99.90;;;;;;5063025;28;20230;-80
2022/10/27 08:48:48;;;;;;;8.70;8.50;;;13.70;99.90;;;;;;5066421;28;20230;-81
2022/10/27 08:51:19;;;;;;;8.47;8.27;;;13.90;99.90;;;;;;5062742;28;20242;-80
2022/10/27 08:53:51;;;;;;;8.87;8.67;;;14.00;99.90;;;;;;5060685;28;20245;-80
2022/10/27 08:56:20;;;;;;;9.00;8.70;;;14.10;99.90;;;;;;5061843;28;20227;-80
2022/10/27 08:58:49;;;;;;;8.60;8.40;;;14.40;99.90;;;;;;5060342;28;20302;-80
2022/10/27 09:01:33;;;;;;;8.57;8.37;;;14.60;99.90;;;;;;5062966;28;20241;-80
2022/10/27 09:04:25;;;;;;;8.40;8.20;;;14.80;99.90;;;;;;5060749;28;20262;-80
2022/10/27 09:07:08;;;;;;;9.20;8.90;;;15.00;99.90;;;;;;5055746;28;20245;-80
2022/10/27 09:09:46;;;;;;;8.98;8.68;;;15.30;99.90;;;;;;5061794;28;20233;-81
2022/10/27 09:12:43;;;;;;;9.50;9.20;;;15.60;99.90;;;;;;5062109;28;20234;-79
2022/10/27 09:15:35;;;;;;;9.20;8.90;;;15.80;99.90;;;;;;5061221;28;20269;-82
2022/10/27 09:18:13;;;;;;;9.15;8.85;;;16.10;99.90;;;;;;5061011;28;20230;-81
2022/10/27 09:20:45;;;;;;;9.48;9.18;;;16.30;99.90;;;;;;5060742;28;20305;-79
2022/10/27 09:23:18;;;;;;;9.43;9.13;;;16.60;99.90;;;;;;5062068;28;20231;-81
2022/10/27 09:25:50;;;;;;;9.20;8.90;;;16.70;99.90;;;;;;5061804;28;20235;-83
2022/10/27 09:28:28;;;;;;;9.50;9.20;;;16.80;99.90;;;;;;5061893;28;20234;-82
2022/10/27 09:30:57;;;;;;;9.50;9.20;;;17.00;99.90;;;;;;5058016;28;20251;-77
2022/10/27 09:33:31;;;;;;;9.50;9.20;;;17.20;99.90;;;;;;5058770;28;20258;-78
2022/10/27 09:36:01;;;;;;;9.50;9.20;;;17.50;99.90;;;;;;5058707;28;20227;-78
2022/10/27 09:38:29;;;;;;;9.80;9.50;;;17.70;99.90;;;;;;5060043;28;20238;-78
2022/10/27 09:40:57;;;;;;;9.70;9.40;;;17.90;99.90;;;;;;5059841;28;20250;-79
2022/10/27 09:43:24;;;;;;;9.75;9.45;;;18.10;99.90;;;;;;5059724;28;20273;-79
2022/10/27 09:46:00;;;;;;;9.80;9.50;;;18.40;99.90;;;;;;5059851;28;20237;-79
2022/10/27 09:48:28;;;;;;;9.80;9.50;;;18.60;99.90;;;;;;5058218;28;20234;-79
2022/10/27 09:51:02;;;;;;;10.02;9.73;;;18.90;99.90;;;;;;5059681;28;20231;-79
2022/10/27 09:53:46;;;;;;;9.77;9.48;;;19.10;99.90;;;;;;5060934;28;20321;-80
2022/10/27 09:56:18;;;;;;;10.20;9.90;;;19.10;99.90;;;;;;5061173;28;20234;-79
2022/10/27 09:58:56;;;;;;;9.88;9.57;;;19.20;99.90;;;;;;5060882;28;20231;-79
2022/10/27 10:01:26;;;;;;;9.88;9.57;;;19.30;99.90;;;;;;5062054;28;20262;-79
2022/10/27 10:03:59;;;;;;;10.10;9.80;;;19.50;99.90;;;;;;5061639;28;20318;-80
2022/10/27 10:06:34;;;;;;;10.13;9.82;;;19.80;99.90;;;;;;5062473;28;20230;-80
2022/10/27 10:09:21;;;;;;;9.77;9.48;;;20.10;99.90;;;;;;5060368;28;20246;-80
2022/10/27 10:11:49;;;;;;;10.07;9.77;;;20.30;99.90;;;;;;5062227;28;20261;-81
2022/10/27 10:14:23;;;;;;;10.30;10.00;;;20.60;99.90;;;;;;5048662;28;20309;-83
2022/10/27 10:16:54;;;;;;;10.20;9.90;;;20.80;99.90;;;;;;5042362;28;20231;-81
2022/10/27 10:19:24;;;;;;;10.10;9.80;;;20.80;99.90;;;;;;5041438;28;20220;-81
2022/10/27 10:21:56;;;;;;;10.25;9.95;;;20.70;99.90;;;;;;5041075;28;20239;-81
2022/10/27 10:24:27;;;;;;;10.23;9.93;;;20.70;99.90;;;;;;5040718;28;20268;-81
2022/10/27 10:26:58;;;;;;;10.30;10.00;;;20.70;99.90;;;;;;5041710;28;20227;-81
2022/10/27 10:29:31;;;;;;;10.40;10.10;;;21.00;99.90;;;;;;5041499;28;20370;-81
2022/10/27 10:32:14;;;;;;;10.40;10.10;;;21.20;99.90;;;;;;5041917;28;20246;-80
2022/10/27 10:34:43;;;;;;;10.23;9.93;;;21.30;99.90;;;;;;5040855;28;20261;-81
2022/10/27 10:37:36;;;;;;;10.30;10.00;;;21.20;99.90;;;;;;5039444;28;20330;-80
2022/10/27 10:40:28;;;;;;;10.50;10.20;;;21.10;99.90;;;;;;5039687;28;20238;-81
2022/10/27 10:43:05;;;;;;;10.30;10.00;;;20.90;99.90;;;;;;5036552;28;20330;-78
2022/10/27 10:45:36;;;;;;;9.73;9.43;;;20.80;99.90;;;;;;5042464;28;20318;-80
2022/10/27 10:48:08;;;;;;;9.75;9.45;;;20.80;99.90;;;;;;5055387;28;20282;-82
2022/10/27 10:50:47;;;;;;;9.80;9.50;;;20.80;99.90;;;;;;5051961;28;20237;-80
2022/10/27 10:53:30;;;;;;;9.98;9.68;;;20.80;99.90;;;;;;5059941;28;20249;-81
2022/10/27 10:56:02;;;;;;;10.00;9.70;;;20.90;99.90;;;;;;5059794;28;20257;-80
2022/10/27 10:58:33;;;;;;;9.95;9.65;;;20.90;99.90;;;;;;5059264;28;20235;-80
2022/10/27 11:01:04;;;;;;;10.05;9.75;;;21.00;99.90;;;;;;5059958;28;20219;-81
2022/10/27 11:03:35;;;;;;;10.10;9.80;;;21.20;99.90;;;;;;5059268;28;20294;-79
2022/10/27 11:06:07;;;;;;;10.38;10.07;;;21.30;99.90;;;;;;5057108;28;20250;-79
2022/10/27 11:08:42;;;;;;;10.52;10.23;;;21.50;99.90;;;;;;5056389;28;20317;-79
2022/10/27 11:11:19;;;;;;;10.43;10.13;;;21.70;99.90;;;;;;5056145;28;20292;-79
2022/10/27 11:13:52;;;;;;;10.25;9.95;;;22.10;99.90;;;;;;5056264;28;20238;-80
2022/10/27 11:16:20;;;;;;;10.40;10.10;;;22.20;99.90;;;;;;5057123;28;20238;-79
2022/10/27 11:18:52;;;;;;;10.48;10.18;;;22.40;99.90;;;;;;5057254;28;20285;-80
2022/10/27 11:21:32;;;;;;;10.60;10.30;;;22.60;99.90;;;;;;5058938;28;20261;-80
2022/10/27 11:24:08;;;;;;;10.20;9.90;;;22.90;99.90;;;;;;5059337;28;20255;-82
2022/10/27 11:26:40;;;;;;;10.30;10.00;;;23.00;99.90;;;;;;5050120;28;20230;-81
2022/10/27 11:29:19;;;;;;;10.18;9.88;;;23.00;99.90;;;;;;5039741;28;20300;-80
2022/10/27 11:31:57;;;;;;;10.23;9.93;;;22.80;99.90;;;;;;5040783;28;20289;-81
2022/10/27 11:34:35;;;;;;;10.18;9.88;;;22.80;99.90;;;;;;5044896;28;20302;-81
2022/10/27 11:37:08;;;;;;;10.15;9.85;;;23.10;99.90;;;;;;5050597;28;20286;-82
2022/10/27 11:39:46;;;;;;;10.18;9.88;;;23.10;99.90;;;;;;5052364;28;20314;-83
2022/10/27 11:42:28;;;;;;;10.30;10.00;;;23.00;99.90;;;;;;5063102;28;20294;-82
2022/10/27 11:45:06;;;;;;;10.50;10.20;;;23.00;99.90;;;;;;5063113;28;20233;-82
2022/10/27 11:47:41;;;;;;;10.73;10.43;;;23.20;99.90;;;;;;5063204;28;20234;-82
2022/10/27 11:50:14;;;;;;;10.75;10.45;;;23.50;99.90;;;;;;5062970;28;20317;-81
2022/10/27 11:52:45;;;;;;;10.80;10.50;;;23.70;99.90;;;;;;5063068;28;20243;-81
2022/10/27 11:55:19;;;;;;;11.00;10.70;;;23.50;99.90;;;;;;5065627;28;20269;-81
2022/10/27 11:57:54;;;;;;;11.00;10.70;;;23.30;99.90;;;;;;5063555;28;20246;-81
2022/10/27 12:00:31;;;;;;;10.65;10.35;;;23.20;99.90;;;;;;5104277;22;20304;-82
2022/10/27 12:03:35;;;;;;;10.82;10.52;;;23.20;99.90;;;;;;5077898;28;20253;-82
2022/10/27 12:06:13;;;;;;;10.70;10.40;;;23.40;99.90;;;;;;5083799;28;20233;-82
2022/10/27 12:08:50;;;;;;;10.63;10.32;;;23.60;99.90;;;;;;5083318;28;20233;-83
2022/10/27 12:11:38;;;;;;;11.00;10.70;;;23.70;99.90;;;;;;5064903;28;20321;-84
2022/10/27 12:14:15;;;;;;;11.10;10.80;;;24.00;99.90;;;;;;5063789;28;20250;-84
2022/10/27 12:16:54;;;;;;;10.95;10.65;;;24.10;99.90;;;;;;5078545;28;20231;-85
2022/10/27 12:19:33;;;;;;;10.90;10.60;;;24.10;99.90;;;;;;5074928;28;20246;-80
2022/10/27 12:22:09;;;;;;;11.00;10.70;;;23.90;99.90;;;;;;5068269;28;20241;-81
2022/10/27 12:24:47;;;;;;;10.90;10.60;;;23.90;99.90;;;;;;5062960;28;20322;-82
2022/10/27 12:27:43;;;;;;;10.80;10.50;;;24.00;99.90;;;;;;5064048;28;20333;-84
2022/10/27 12:30:24;;;;;;;10.60;10.30;;;24.10;99.90;;;;;;5060793;28;20245;-83
2022/10/27 12:33:00;;;;;;;10.38;10.07;;;24.20;99.90;;;;;;5062933;28;20230;-83
2022/10/27 12:35:39;;;;;;;10.55;10.25;;;24.10;99.90;;;;;;5061677;28;20230;-83
2022/10/27 12:38:16;;;;;;;10.30;10.00;;;24.00;99.90;;;;;;5062159;28;20258;-82
2022/10/27 12:40:55;;;;;;;10.30;10.00;;;24.00;99.90;;;;;;5040641;28;20304;-83
2022/10/27 12:43:41;;;;;;;10.68;10.38;;;24.10;99.90;;;;;;5042201;28;20227;-86
2022/10/27 12:46:37;;;;;;;10.60;10.30;;;23.90;99.90;;;;;;5044226;28;20234;-84
2022/10/27 12:49:16;;;;;;;10.68;10.38;;;24.10;99.90;;;;;;5058607;28;20230;-83
2022/10/27 12:51:53;;;;;;;11.38;11.00;;;24.40;99.90;;;;;;5053210;28;20235;-84
2022/10/27 12:54:41;;;;;;;11.18;10.88;;;24.50;99.90;;;;;;5062043;28;20233;-85
2022/10/27 12:57:28;;;;;;;10.75;10.45;;;24.50;99.90;;;;;;5077016;28;20222;-86
2022/10/27 13:00:09;;;;;;;10.80;10.50;;;24.60;99.90;;;;;;5075563;28;20226;-86
2022/10/27 13:02:45;;;;;;;10.57;10.27;;;24.50;99.90;;;;;;5075715;28;20269;-85
2022/10/27 13:05:52;;;;;;;10.50;10.20;;;24.40;99.90;;;;;;5068573;28;20229;-83
2022/10/27 13:08:54;;;;;;;10.48;10.18;;;24.30;99.90;;;;;;5063377;28;20230;-81
2022/10/27 13:12:06;;;;;;;10.10;9.80;;;24.10;99.90;;;;;;5054343;28;20290;-83
2022/10/27 13:15:21;;;;;;;10.70;10.40;;;24.00;99.90;;;;;;5062560;28;20231;-79
2022/10/27 13:17:58;;;;;;;10.32;10.02;;;24.10;99.90;;;;;;5059635;28;20327;-79
2022/10/27 13:20:54;;;;;;;10.80;10.50;;;24.10;99.90;;;;;;5051522;28;20243;-80
2022/10/27 13:23:33;;;;;;;10.70;10.40;;;24.10;99.90;;;;;;5039288;28;20246;-82
2022/10/27 13:26:19;;;;;;;10.68;10.38;;;24.40;99.90;;;;;;5059152;28;20234;-82
2022/10/27 13:28:54;;;;;;;10.70;10.40;;;24.60;99.90;;;;;;5059739;28;20230;-80